sensor_id;sensor_type;location;lat;lon;timestamp;pressure;altitude;pressure_sealevel;temperature;humidity
15604;BME280;7902;49.042;9.092;2022-12-18T00:01:04;100272.75;;;-0.80;54.25
15604;BME280;7902;49.042;9.092;2022-12-18T00:03:35;100272.75;;;-0.80;53.79
15604;BME280;7902;49.042;9.092;2022-12-18T00:06:01;100273.59;;;-0.83;53.51
15604;BME280;7902;49.042;9.092;2022-12-18T00:08:28;100262.50;;;-0.91;54.38
15604;BME280;7902;49.042;9.092;2022-12-18T00:10:54;100266.94;;;-1.11;53.51
15604;BME280;7902;49.042;9.092;2022-12-18T00:13:20;100259.19;;;-1.05;54.64
15604;BME280;7902;49.042;9.092;2022-12-18T00:15:46;100266.91;;;-1.05;54.25
15604;BME280;7902;49.042;9.092;2022-12-18T00:18:12;100264.28;;;-1.02;54.62
15604;BME280;7902;49.042;9.092;2022-12-18T00:20:39;100270.25;;;-0.94;54.26
15604;BME280;7902;49.042;9.092;2022-12-18T00:23:06;100274.50;;;-0.89;53.34
15604;BME280;7902;49.042;9.092;2022-12-18T00:25:33;100272.78;;;-0.88;53.18
15604;BME280;7902;49.042;9.092;2022-12-18T00:28:01;100267.72;;;-1.00;53.45
15604;BME280;7902;49.042;9.092;2022-12-18T00:30:27;100260.03;;;-1.06;53.64
15604;BME280;7902;49.042;9.092;2022-12-18T00:32:52;100256.59;;;-1.08;53.78
15604;BME280;7902;49.042;9.092;2022-12-18T00:35:18;100258.31;;;-1.04;54.76
15604;BME280;7902;49.042;9.092;2022-12-18T00:37:44;100267.81;;;-1.09;54.32
15604;BME280;7902;49.042;9.092;2022-12-18T00:40:11;100267.72;;;-1.00;54.53
15604;BME280;7902;49.042;9.092;2022-12-18T00:42:37;100272.06;;;-1.07;54.62
15604;BME280;7902;49.042;9.092;2022-12-18T00:45:26;100265.16;;;-1.03;54.06
15604;BME280;7902;49.042;9.092;2022-12-18T00:47:53;100263.47;;;-1.04;53.64
15604;BME280;7902;49.042;9.092;2022-12-18T00:50:20;100269.44;;;-1.01;53.96
15604;BME280;7902;49.042;9.092;2022-12-18T00:52:46;100261.69;;;-0.96;53.59
15604;BME280;7902;49.042;9.092;2022-12-18T00:55:12;100258.34;;;-1.10;53.80
15604;BME280;7902;49.042;9.092;2022-12-18T00:57:39;100273.84;;;-1.16;54.79
15604;BME280;7902;49.042;9.092;2022-12-18T01:00:06;100277.22;;;-1.08;54.76
15604;BME280;7902;49.042;9.092;2022-12-18T01:02:32;100268.59;;;-1.01;54.26
15604;BME280;7902;49.042;9.092;2022-12-18T01:04:58;100265.16;;;-1.00;53.52
15604;BME280;7902;49.042;9.092;2022-12-18T01:07:24;100259.97;;;-0.97;53.34
15604;BME280;7902;49.042;9.092;2022-12-18T01:09:50;100269.44;;;-1.01;53.88
15604;BME280;7902;49.042;9.092;2022-12-18T01:12:16;100272.81;;;-0.94;53.56
15604;BME280;7902;49.042;9.092;2022-12-18T01:14:42;100282.38;;;-1.05;54.47
15604;BME280;7902;49.042;9.092;2022-12-18T01:17:08;100285.81;;;-1.06;53.39
15604;BME280;7902;49.042;9.092;2022-12-18T01:19:34;100284.00;;;-0.92;53.93
15604;BME280;7902;49.042;9.092;2022-12-18T01:22:00;100280.59;;;-0.99;53.94
15604;BME280;7902;49.042;9.092;2022-12-18T01:24:26;100279.75;;;-0.99;53.67
15604;BME280;7902;49.042;9.092;2022-12-18T01:26:52;100281.47;;;-1.01;53.35
15604;BME280;7902;49.042;9.092;2022-12-18T01:29:18;100280.63;;;-1.00;54.25
15604;BME280;7902;49.042;9.092;2022-12-18T01:31:43;100295.19;;;-0.96;53.14
15604;BME280;7902;49.042;9.092;2022-12-18T01:34:09;100294.34;;;-0.98;53.86
15604;BME280;7902;49.042;9.092;2022-12-18T01:36:37;100278.81;;;-0.89;52.94
15604;BME280;7902;49.042;9.092;2022-12-18T01:39:07;100282.28;;;-0.93;53.67
15604;BME280;7902;49.042;9.092;2022-12-18T01:41:34;100281.34;;;-0.83;53.73
15604;BME280;7902;49.042;9.092;2022-12-18T01:47:23;100283.03;;;-0.76;53.55
15604;BME280;7902;49.042;9.092;2022-12-18T01:49:49;100282.31;;;-0.96;53.12
15604;BME280;7902;49.042;9.092;2022-12-18T01:52:16;100273.72;;;-0.98;54.15
15604;BME280;7902;49.042;9.092;2022-12-18T01:54:43;100278.00;;;-0.96;52.99
15604;BME280;7902;49.042;9.092;2022-12-18T01:57:10;100290.84;;;-0.85;54.09
15604;BME280;7902;49.042;9.092;2022-12-18T01:59:36;100280.53;;;-0.88;53.88
15604;BME280;7902;49.042;9.092;2022-12-18T02:02:03;100271.03;;;-0.83;53.17
15604;BME280;7902;49.042;9.092;2022-12-18T02:04:29;100278.81;;;-0.89;54.06
15604;BME280;7902;49.042;9.092;2022-12-18T02:07:05;100282.28;;;-0.92;54.17
15604;BME280;7902;49.042;9.092;2022-12-18T02:09:40;100289.19;;;-0.95;52.96
15604;BME280;7902;49.042;9.092;2022-12-18T02:12:16;100296.03;;;-0.91;53.98
15604;BME280;7902;49.042;9.092;2022-12-18T02:15:05;100285.75;;;-0.97;53.81
15604;BME280;7902;49.042;9.092;2022-12-18T02:17:37;100292.63;;;-0.96;53.16
15604;BME280;7902;49.042;9.092;2022-12-18T02:23:06;100277.28;;;-1.17;53.55
15604;BME280;7902;49.042;9.092;2022-12-18T02:26:02;100278.94;;;-1.07;54.48
15604;BME280;7902;49.042;9.092;2022-12-18T02:28:33;100279.00;;;-1.13;53.82
15604;BME280;7902;49.042;9.092;2022-12-18T02:31:02;100284.16;;;-1.13;54.08
15604;BME280;7902;49.042;9.092;2022-12-18T02:33:30;100292.69;;;-1.05;54.38
15604;BME280;7902;49.042;9.092;2022-12-18T02:35:58;100291.00;;;-1.12;53.97
15604;BME280;7902;49.042;9.092;2022-12-18T02:38:26;100293.50;;;-1.02;54.22
15604;BME280;7902;49.042;9.092;2022-12-18T02:40:53;100305.53;;;-1.02;53.16
15604;BME280;7902;49.042;9.092;2022-12-18T02:43:19;100310.72;;;-1.04;54.30
15604;BME280;7902;49.042;9.092;2022-12-18T02:45:52;100306.44;;;-1.06;53.22
15604;BME280;7902;49.042;9.092;2022-12-18T02:48:23;100306.47;;;-1.09;53.25
15604;BME280;7902;49.042;9.092;2022-12-18T02:53:51;100313.31;;;-1.08;53.52
15604;BME280;7902;49.042;9.092;2022-12-18T02:56:22;100305.59;;;-1.13;53.28
15604;BME280;7902;49.042;9.092;2022-12-18T02:59:00;100303.06;;;-1.17;54.25
15604;BME280;7902;49.042;9.092;2022-12-18T03:01:33;100298.69;;;-1.06;54.85
15604;BME280;7902;49.042;9.092;2022-12-18T03:04:05;100300.50;;;-1.19;53.86
15604;BME280;7902;49.042;9.092;2022-12-18T03:06:42;100300.44;;;-1.10;53.13
15604;BME280;7902;49.042;9.092;2022-12-18T03:09:21;100297.91;;;-1.16;53.44
15604;BME280;7902;49.042;9.092;2022-12-18T03:11:54;100291.09;;;-1.26;54.75
15604;BME280;7902;49.042;9.092;2022-12-18T03:14:41;100293.66;;;-1.23;54.24
15604;BME280;7902;49.042;9.092;2022-12-18T03:17:13;100306.56;;;-1.27;53.75
15604;BME280;7902;49.042;9.092;2022-12-18T03:19:42;100302.28;;;-1.30;54.68
15604;BME280;7902;49.042;9.092;2022-12-18T03:22:09;100307.44;;;-1.28;53.04
15604;BME280;7902;49.042;9.092;2022-12-18T03:24:36;100314.28;;;-1.23;53.22
15604;BME280;7902;49.042;9.092;2022-12-18T03:27:07;100304.81;;;-1.24;53.21
15604;BME280;7902;49.042;9.092;2022-12-18T03:29:40;100307.44;;;-1.28;53.40
15604;BME280;7902;49.042;9.092;2022-12-18T03:32:11;100299.66;;;-1.25;53.57
15604;BME280;7902;49.042;9.092;2022-12-18T03:34:40;100299.69;;;-1.24;53.25
15604;BME280;7902;49.042;9.092;2022-12-18T03:37:06;100289.38;;;-1.24;53.82
15604;BME280;7902;49.042;9.092;2022-12-18T03:39:34;100294.56;;;-1.33;54.63
15604;BME280;7902;49.042;9.092;2022-12-18T03:42:07;100295.31;;;-1.14;54.11
15604;BME280;7902;49.042;9.092;2022-12-18T03:44:40;100300.44;;;-1.13;52.91
15604;BME280;7902;49.042;9.092;2022-12-18T03:47:24;100299.63;;;-1.13;54.24
15604;BME280;7902;49.042;9.092;2022-12-18T03:50:14;100297.06;;;-1.19;54.10
15604;BME280;7902;49.042;9.092;2022-12-18T03:52:52;100300.47;;;-1.17;54.46
15604;BME280;7902;49.042;9.092;2022-12-18T03:55:20;100297.91;;;-1.14;54.28
15604;BME280;7902;49.042;9.092;2022-12-18T03:57:48;100296.91;;;-0.98;53.63
15604;BME280;7902;49.042;9.092;2022-12-18T04:00:16;100291.78;;;-1.01;53.75
15604;BME280;7902;49.042;9.092;2022-12-18T04:02:47;100299.47;;;-0.92;53.71
15604;BME280;7902;49.042;9.092;2022-12-18T04:05:14;100296.03;;;-0.91;53.79
15604;BME280;7902;49.042;9.092;2022-12-18T04:07:41;100305.47;;;-0.93;53.08
15604;BME280;7902;49.042;9.092;2022-12-18T04:10:10;100301.16;;;-0.88;53.31
15604;BME280;7902;49.042;9.092;2022-12-18T04:12:37;100294.19;;;-0.75;53.12
15604;BME280;7902;49.042;9.092;2022-12-18T04:15:04;100301.06;;;-0.79;53.67
15604;BME280;7902;49.042;9.092;2022-12-18T04:17:30;100300.16;;;-0.69;52.62
15604;BME280;7902;49.042;9.092;2022-12-18T04:19:56;100301.81;;;-0.63;52.73
15604;BME280;7902;49.042;9.092;2022-12-18T04:22:22;100295.78;;;-0.59;53.00
15604;BME280;7902;49.042;9.092;2022-12-18T04:24:48;100296.78;;;-0.78;52.77
15604;BME280;7902;49.042;9.092;2022-12-18T04:27:14;100295.91;;;-0.79;52.66
15604;BME280;7902;49.042;9.092;2022-12-18T04:29:40;100308.06;;;-0.90;53.35
15604;BME280;7902;49.042;9.092;2022-12-18T04:32:07;100307.19;;;-0.91;53.90
15604;BME280;7902;49.042;9.092;2022-12-18T04:34:33;100320.16;;;-1.01;53.08
15604;BME280;7902;49.042;9.092;2022-12-18T04:36:59;100315.09;;;-1.13;53.99
15604;BME280;7902;49.042;9.092;2022-12-18T04:39:25;100313.38;;;-1.16;53.68
15604;BME280;7902;49.042;9.092;2022-12-18T04:41:51;100312.47;;;-1.12;53.63
15604;BME280;7902;49.042;9.092;2022-12-18T04:44:17;100309.88;;;-1.06;54.51
15604;BME280;7902;49.042;9.092;2022-12-18T04:46:43;100304.78;;;-1.15;53.66
15604;BME280;7902;49.042;9.092;2022-12-18T04:49:09;100297.91;;;-1.17;54.35
15604;BME280;7902;49.042;9.092;2022-12-18T04:51:36;100308.22;;;-1.14;53.36
15604;BME280;7902;49.042;9.092;2022-12-18T04:54:03;100305.69;;;-1.25;53.47
15604;BME280;7902;49.042;9.092;2022-12-18T04:56:30;100301.38;;;-1.18;53.34
15604;BME280;7902;49.042;9.092;2022-12-18T04:58:56;100297.06;;;-1.19;53.16
15604;BME280;7902;49.042;9.092;2022-12-18T05:01:22;100298.00;;;-1.33;53.32
15604;BME280;7902;49.042;9.092;2022-12-18T05:03:48;100300.50;;;-1.20;54.06
15604;BME280;7902;49.042;9.092;2022-12-18T05:06:16;100303.09;;;-1.20;54.21
15604;BME280;7902;49.042;9.092;2022-12-18T05:08:42;100309.16;;;-1.29;54.37
15604;BME280;7902;49.042;9.092;2022-12-18T05:11:10;100293.63;;;-1.20;54.56
15604;BME280;7902;49.042;9.092;2022-12-18T05:13:37;100291.91;;;-1.21;54.04
15604;BME280;7902;49.042;9.092;2022-12-18T05:16:04;100298.81;;;-1.23;53.86
15604;BME280;7902;49.042;9.092;2022-12-18T05:18:30;100302.25;;;-1.24;53.38
15604;BME280;7902;49.042;9.092;2022-12-18T05:20:56;100301.41;;;-1.24;52.73
15604;BME280;7902;49.042;9.092;2022-12-18T05:23:23;100299.66;;;-1.19;54.20
15604;BME280;7902;49.042;9.092;2022-12-18T05:25:55;100313.47;;;-1.36;53.39
15604;BME280;7902;49.042;9.092;2022-12-18T05:28:22;100310.84;;;-1.25;53.41
15604;BME280;7902;49.042;9.092;2022-12-18T05:30:52;100316.84;;;-1.24;54.15
15604;BME280;7902;49.042;9.092;2022-12-18T05:33:19;100327.16;;;-1.23;53.23
15604;BME280;7902;49.042;9.092;2022-12-18T05:35:51;100321.19;;;-1.28;54.04
15604;BME280;7902;49.042;9.092;2022-12-18T05:38:18;100328.84;;;-1.20;54.02
15604;BME280;7902;49.042;9.092;2022-12-18T05:40:44;100330.59;;;-1.25;54.22
15604;BME280;7902;49.042;9.092;2022-12-18T05:43:10;100328.06;;;-1.36;53.60
15604;BME280;7902;49.042;9.092;2022-12-18T05:45:38;100333.16;;;-1.24;53.25
15604;BME280;7902;49.042;9.092;2022-12-18T05:48:04;100327.13;;;-1.21;53.34
15604;BME280;7902;49.042;9.092;2022-12-18T05:50:30;100333.97;;;-1.17;53.34
15604;BME280;7902;49.042;9.092;2022-12-18T05:52:56;100327.09;;;-1.15;52.79
15604;BME280;7902;49.042;9.092;2022-12-18T05:55:21;100323.69;;;-1.20;53.56
15604;BME280;7902;49.042;9.092;2022-12-18T05:57:47;100331.34;;;-1.07;52.44
15604;BME280;7902;49.042;9.092;2022-12-18T06:00:14;100327.88;;;-1.03;53.65
15604;BME280;7902;49.042;9.092;2022-12-18T06:02:40;100327.09;;;-1.11;53.03
15604;BME280;7902;49.042;9.092;2022-12-18T06:05:06;100327.91;;;-1.07;52.80
15604;BME280;7902;49.042;9.092;2022-12-18T06:07:32;100320.22;;;-1.13;53.43
15604;BME280;7902;49.042;9.092;2022-12-18T06:09:58;100315.84;;;-1.02;52.64
15604;BME280;7902;49.042;9.092;2022-12-18T06:12:23;100321.06;;;-1.10;53.72
15604;BME280;7902;49.042;9.092;2022-12-18T06:14:49;100328.78;;;-1.04;52.62
15604;BME280;7902;49.042;9.092;2022-12-18T06:17:15;100328.75;;;-0.99;53.12
15604;BME280;7902;49.042;9.092;2022-12-18T06:19:41;100329.56;;;-0.99;52.48
15604;BME280;7902;49.042;9.092;2022-12-18T06:22:07;100334.75;;;-1.00;52.52
15604;BME280;7902;49.042;9.092;2022-12-18T06:24:33;100337.34;;;-1.03;52.74
15604;BME280;7902;49.042;9.092;2022-12-18T06:26:59;100339.09;;;-1.04;53.58
15604;BME280;7902;49.042;9.092;2022-12-18T06:29:25;100342.59;;;-1.18;54.55
15604;BME280;7902;49.042;9.092;2022-12-18T06:31:50;100336.59;;;-1.26;53.40
15604;BME280;7902;49.042;9.092;2022-12-18T06:34:17;100335.72;;;-1.19;53.24
15604;BME280;7902;49.042;9.092;2022-12-18T06:36:43;100345.16;;;-1.21;54.10
15604;BME280;7902;49.042;9.092;2022-12-18T06:39:08;100349.41;;;-1.11;52.54
15604;BME280;7902;49.042;9.092;2022-12-18T06:41:34;100342.53;;;-1.12;53.35
15604;BME280;7902;49.042;9.092;2022-12-18T06:44:00;100341.75;;;-1.23;54.20
15604;BME280;7902;49.042;9.092;2022-12-18T06:46:26;100340.03;;;-1.18;53.36
15604;BME280;7902;49.042;9.092;2022-12-18T06:48:52;100337.38;;;-1.12;53.37
15604;BME280;7902;49.042;9.092;2022-12-18T06:51:19;100339.16;;;-1.20;53.17
15604;BME280;7902;49.042;9.092;2022-12-18T06:53:46;100344.38;;;-1.33;53.63
15604;BME280;7902;49.042;9.092;2022-12-18T06:56:12;100350.38;;;-1.27;53.69
15604;BME280;7902;49.042;9.092;2022-12-18T06:58:38;100347.75;;;-1.21;53.18
15604;BME280;7902;49.042;9.092;2022-12-18T07:01:07;100358.06;;;-1.18;52.63
15604;BME280;7902;49.042;9.092;2022-12-18T07:03:33;100364.06;;;-1.19;53.18
15604;BME280;7902;49.042;9.092;2022-12-18T07:05:59;100370.16;;;-1.39;53.76
15604;BME280;7902;49.042;9.092;2022-12-18T07:08:25;100369.22;;;-1.22;54.44
15604;BME280;7902;49.042;9.092;2022-12-18T07:10:51;100364.97;;;-1.28;53.09
15604;BME280;7902;49.042;9.092;2022-12-18T07:13:19;100376.19;;;-1.37;53.07
15604;BME280;7902;49.042;9.092;2022-12-18T07:15:45;100376.94;;;-1.16;54.38
15604;BME280;7902;49.042;9.092;2022-12-18T07:18:11;100387.28;;;-1.25;53.10
15604;BME280;7902;49.042;9.092;2022-12-18T07:20:37;100389.00;;;-1.24;53.89
15604;BME280;7902;49.042;9.092;2022-12-18T07:23:03;100389.00;;;-1.24;53.34
15604;BME280;7902;49.042;9.092;2022-12-18T07:25:34;100396.75;;;-1.23;54.06
15604;BME280;7902;49.042;9.092;2022-12-18T07:28:01;100394.09;;;-1.12;52.58
15604;BME280;7902;49.042;9.092;2022-12-18T07:30:27;100399.31;;;-1.24;53.74
15604;BME280;7902;49.042;9.092;2022-12-18T07:32:53;100395.91;;;-1.33;52.77
15604;BME280;7902;49.042;9.092;2022-12-18T07:35:23;100401.06;;;-1.33;53.08
15604;BME280;7902;49.042;9.092;2022-12-18T07:38:00;100399.31;;;-1.30;54.25
15604;BME280;7902;49.042;9.092;2022-12-18T07:40:26;100387.28;;;-1.25;53.87
15604;BME280;7902;49.042;9.092;2022-12-18T07:42:52;100389.84;;;-1.19;53.16
15604;BME280;7902;49.042;9.092;2022-12-18T07:45:18;100392.41;;;-1.15;52.50
15604;BME280;7902;49.042;9.092;2022-12-18T07:47:44;100392.41;;;-1.16;53.65
15604;BME280;7902;49.042;9.092;2022-12-18T07:50:10;100389.84;;;-1.25;54.27
15604;BME280;7902;49.042;9.092;2022-12-18T07:52:36;100397.56;;;-1.16;53.87
15604;BME280;7902;49.042;9.092;2022-12-18T07:55:02;100395.84;;;-1.20;53.81
15604;BME280;7902;49.042;9.092;2022-12-18T07:57:28;100402.72;;;-1.21;53.23
15604;BME280;7902;49.042;9.092;2022-12-18T07:59:54;100406.13;;;-1.13;53.77
15604;BME280;7902;49.042;9.092;2022-12-18T08:02:20;100412.13;;;-1.12;52.73
15604;BME280;7902;49.042;9.092;2022-12-18T08:04:46;100407.88;;;-1.13;53.19
15604;BME280;7902;49.042;9.092;2022-12-18T08:07:12;100410.47;;;-1.19;52.68
15604;BME280;7902;49.042;9.092;2022-12-18T08:09:38;100408.69;;;-1.10;52.31
15604;BME280;7902;49.042;9.092;2022-12-18T08:12:04;100413.03;;;-1.13;53.25
15604;BME280;7902;49.042;9.092;2022-12-18T08:14:30;100412.16;;;-1.15;53.43
15604;BME280;7902;49.042;9.092;2022-12-18T08:16:56;100418.16;;;-1.10;52.45
15604;BME280;7902;49.042;9.092;2022-12-18T08:19:22;100419.03;;;-1.16;52.89
15604;BME280;7902;49.042;9.092;2022-12-18T08:21:48;100414.75;;;-1.18;52.82
15604;BME280;7902;49.042;9.092;2022-12-18T08:24:14;100420.72;;;-1.04;52.85
15604;BME280;7902;49.042;9.092;2022-12-18T08:26:40;100417.19;;;-0.94;53.56
15604;BME280;7902;49.042;9.092;2022-12-18T08:29:06;100417.16;;;-0.88;53.70
15604;BME280;7902;49.042;9.092;2022-12-18T08:31:31;100414.59;;;-0.85;53.28
15604;BME280;7902;49.042;9.092;2022-12-18T08:33:58;100417.97;;;-0.80;53.16
15604;BME280;7902;49.042;9.092;2022-12-18T08:36:24;100407.72;;;-0.86;52.61
15604;BME280;7902;49.042;9.092;2022-12-18T08:38:50;100408.53;;;-0.76;53.59
15604;BME280;7902;49.042;9.092;2022-12-18T08:41:17;100403.28;;;-0.66;53.28
15604;BME280;7902;49.042;9.092;2022-12-18T08:43:44;100409.25;;;-0.61;53.00
15604;BME280;7902;49.042;9.092;2022-12-18T08:46:32;100417.91;;;-0.62;52.56
15604;BME280;7902;49.042;9.092;2022-12-18T08:48:59;100410.19;;;-0.66;53.49
15604;BME280;7902;49.042;9.092;2022-12-18T08:51:25;100410.13;;;-0.59;52.85
15604;BME280;7902;49.042;9.092;2022-12-18T08:53:51;100405.72;;;-0.45;52.38
15604;BME280;7902;49.042;9.092;2022-12-18T08:56:18;100401.44;;;-0.44;52.41
15604;BME280;7902;49.042;9.092;2022-12-18T08:58:43;100399.72;;;-0.45;53.40
15604;BME280;7902;49.042;9.092;2022-12-18T09:01:11;100395.38;;;-0.38;52.22
15604;BME280;7902;49.042;9.092;2022-12-18T09:03:38;100390.22;;;-0.38;53.30
15604;BME280;7902;49.042;9.092;2022-12-18T09:06:04;100390.84;;;-0.14;52.81
15604;BME280;7902;49.042;9.092;2022-12-18T09:08:30;100389.97;;;-0.11;52.54
15604;BME280;7902;49.042;9.092;2022-12-18T09:10:56;100386.50;;;-0.09;51.82
15604;BME280;7902;49.042;9.092;2022-12-18T09:13:22;100383.22;;;-0.26;53.37
15604;BME280;7902;49.042;9.092;2022-12-18T09:15:51;100386.63;;;-0.22;52.46
15604;BME280;7902;49.042;9.092;2022-12-18T09:18:19;100384.78;;;-0.08;52.71
15604;BME280;7902;49.042;9.092;2022-12-18T09:20:45;100385.72;;;-0.17;53.15
15604;BME280;7902;49.042;9.092;2022-12-18T09:23:12;100384.72;;;-0.04;52.52
15604;BME280;7902;49.042;9.092;2022-12-18T09:25:38;100369.06;;;0.16;52.81
15604;BME280;7902;49.042;9.092;2022-12-18T09:28:30;100369.91;;;0.17;52.30
15604;BME280;7902;49.042;9.092;2022-12-18T09:30:56;100364.69;;;0.20;52.15
15604;BME280;7902;49.042;9.092;2022-12-18T09:33:22;100367.81;;;0.51;52.05
15604;BME280;7902;49.042;9.092;2022-12-18T09:35:48;100372.34;;;0.30;52.10
15604;BME280;7902;49.042;9.092;2022-12-18T09:38:17;100370.41;;;0.48;51.73
15604;BME280;7902;49.042;9.092;2022-12-18T09:40:53;100374.56;;;0.64;51.97
15604;BME280;7902;49.042;9.092;2022-12-18T09:43:30;100369.31;;;0.68;51.62
15604;BME280;7902;49.042;9.092;2022-12-18T09:46:07;100363.19;;;0.77;51.64
15604;BME280;7902;49.042;9.092;2022-12-18T09:48:37;100351.97;;;0.76;51.67
15604;BME280;7902;49.042;9.092;2022-12-18T09:51:14;100364.84;;;0.81;52.20
15604;BME280;7902;49.042;9.092;2022-12-18T09:53:44;100368.22;;;0.86;51.42
15604;BME280;7902;49.042;9.092;2022-12-18T09:56:16;100368.22;;;0.89;52.11
15604;BME280;7902;49.042;9.092;2022-12-18T09:58:55;100374.06;;;1.00;51.12
15604;BME280;7902;49.042;9.092;2022-12-18T10:01:24;100382.63;;;1.05;51.50
15604;BME280;7902;49.042;9.092;2022-12-18T10:03:50;100388.47;;;1.19;50.86
15604;BME280;7902;49.042;9.092;2022-12-18T10:09:06;100370.28;;;1.25;51.13
15604;BME280;7902;49.042;9.092;2022-12-18T10:17:20;100390.91;;;1.30;51.35
15604;BME280;7902;49.042;9.092;2022-12-18T10:19:55;100398.78;;;1.22;51.02
15604;BME280;7902;49.042;9.092;2022-12-18T10:22:50;100392.69;;;1.26;51.66
15604;BME280;7902;49.042;9.092;2022-12-18T10:25:28;100389.03;;;1.40;50.89
15604;BME280;7902;49.042;9.092;2022-12-18T10:28:00;100386.44;;;1.41;51.12
15604;BME280;7902;49.042;9.092;2022-12-18T10:30:33;100383.00;;;1.41;51.82
15604;BME280;7902;49.042;9.092;2022-12-18T10:33:02;100377.84;;;1.38;51.88
15604;BME280;7902;49.042;9.092;2022-12-18T10:35:28;100378.63;;;1.44;52.40
15604;BME280;7902;49.042;9.092;2022-12-18T10:40:29;100376.75;;;1.54;50.91
15604;BME280;7902;49.042;9.092;2022-12-18T10:45:30;100381.72;;;1.66;51.95
15604;BME280;7902;49.042;9.092;2022-12-18T10:47:56;100384.38;;;1.63;50.98
15604;BME280;7902;49.042;9.092;2022-12-18T10:50:40;100381.56;;;1.75;51.65
15604;BME280;7902;49.042;9.092;2022-12-18T10:53:05;100380.69;;;1.76;50.68
15604;BME280;7902;49.042;9.092;2022-12-18T10:55:34;100374.56;;;1.82;50.64
15604;BME280;7902;49.042;9.092;2022-12-18T11:01:18;100373.72;;;1.81;50.81
15604;BME280;7902;49.042;9.092;2022-12-18T11:06:19;100363.19;;;1.90;50.42
15604;BME280;7902;49.042;9.092;2022-12-18T11:09:19;100354.38;;;2.00;50.49
15604;BME280;7902;49.042;9.092;2022-12-18T11:11:50;100357.84;;;1.99;51.44
15604;BME280;7902;49.042;9.092;2022-12-18T11:14:22;100351.72;;;2.03;51.24
15604;BME280;7902;49.042;9.092;2022-12-18T11:16:49;100349.97;;;2.07;50.35
15604;BME280;7902;49.042;9.092;2022-12-18T11:19:32;100355.16;;;2.05;51.04
15604;BME280;7902;49.042;9.092;2022-12-18T11:21:59;100349.91;;;2.10;51.80
15604;BME280;7902;49.042;9.092;2022-12-18T11:24:32;100347.03;;;2.24;50.95
15604;BME280;7902;49.042;9.092;2022-12-18T11:27:04;100343.84;;;2.09;51.00
15604;BME280;7902;49.042;9.092;2022-12-18T11:35:09;100341.97;;;2.17;50.21
15604;BME280;7902;49.042;9.092;2022-12-18T11:37:39;100331.38;;;2.30;51.40
15604;BME280;7902;49.042;9.092;2022-12-18T11:40:17;100324.22;;;2.42;50.57
15604;BME280;7902;49.042;9.092;2022-12-18T11:43:06;100327.25;;;2.21;50.41
15604;BME280;7902;49.042;9.092;2022-12-18T11:45:48;100324.31;;;2.38;50.36
15604;BME280;7902;49.042;9.092;2022-12-18T11:48:28;100335.75;;;2.26;50.76
15604;BME280;7902;49.042;9.092;2022-12-18T11:50:59;100329.50;;;2.36;50.78
15604;BME280;7902;49.042;9.092;2022-12-18T11:53:27;100333.91;;;2.34;50.86
15604;BME280;7902;49.042;9.092;2022-12-18T12:04:15;100313.53;;;2.59;49.86
15604;BME280;7902;49.042;9.092;2022-12-18T12:06:51;100298.66;;;2.65;49.83
15604;BME280;7902;49.042;9.092;2022-12-18T12:12:16;100297.81;;;2.65;50.67
15604;BME280;7902;49.042;9.092;2022-12-18T12:23:00;100298.50;;;2.73;51.81
15604;BME280;7902;49.042;9.092;2022-12-18T12:28:16;100295.75;;;2.81;50.55
15604;BME280;7902;49.042;9.092;2022-12-18T12:30:51;100291.44;;;2.80;50.61
15604;BME280;7902;49.042;9.092;2022-12-18T12:36:17;100292.97;;;2.88;49.91
15604;BME280;7902;49.042;9.092;2022-12-18T12:38:50;100300.72;;;2.91;50.31
15604;BME280;7902;49.042;9.092;2022-12-18T12:41:20;100299.91;;;2.88;50.25
15604;BME280;7902;49.042;9.092;2022-12-18T12:44:09;100288.63;;;2.90;50.40
15604;BME280;7902;49.042;9.092;2022-12-18T12:46:41;100298.78;;;2.99;50.51
15604;BME280;7902;49.042;9.092;2022-12-18T12:49:18;100305.00;;;2.92;50.09
15604;BME280;7902;49.042;9.092;2022-12-18T12:54:48;100302.06;;;3.07;49.55
15604;BME280;7902;49.042;9.092;2022-12-18T12:57:31;100302.06;;;3.07;50.46
15604;BME280;7902;49.042;9.092;2022-12-18T13:00:05;100303.50;;;2.82;50.57
15604;BME280;7902;49.042;9.092;2022-12-18T13:10:49;100301.28;;;3.04;51.08
15604;BME280;7902;49.042;9.092;2022-12-18T13:13:15;100301.03;;;3.15;49.96
15604;BME280;7902;49.042;9.092;2022-12-18T13:15:45;100297.47;;;3.19;49.97
15604;BME280;7902;49.042;9.092;2022-12-18T13:18:15;100302.44;;;3.29;50.78
15604;BME280;7902;49.042;9.092;2022-12-18T13:20:48;100295.56;;;3.27;50.26
15604;BME280;7902;49.042;9.092;2022-12-18T13:25:51;100282.66;;;3.24;49.67
15604;BME280;7902;49.042;9.092;2022-12-18T13:31:13;100285.16;;;3.27;50.71
15604;BME280;7902;49.042;9.092;2022-12-18T13:33:45;100280.63;;;3.35;50.27
15604;BME280;7902;49.042;9.092;2022-12-18T13:36:29;100280.63;;;3.35;50.03
15604;BME280;7902;49.042;9.092;2022-12-18T13:41:35;100266.19;;;3.25;50.96
15604;BME280;7902;49.042;9.092;2022-12-18T13:46:48;100256.63;;;3.27;50.06
15604;BME280;7902;49.042;9.092;2022-12-18T13:51:58;100249.69;;;3.27;50.57
15604;BME280;7902;49.042;9.092;2022-12-18T13:54:39;100242.59;;;3.34;50.70
15604;BME280;7902;49.042;9.092;2022-12-18T13:57:28;100244.34;;;3.33;50.92
15604;BME280;7902;49.042;9.092;2022-12-18T13:59:55;100251.41;;;3.27;50.54
15604;BME280;7902;49.042;9.092;2022-12-18T14:02:24;100251.06;;;3.40;50.49
15604;BME280;7902;49.042;9.092;2022-12-18T14:04:51;100247.63;;;3.40;50.69
15604;BME280;7902;49.042;9.092;2022-12-18T14:07:40;100256.00;;;3.51;50.43
15604;BME280;7902;49.042;9.092;2022-12-18T14:10:12;100261.28;;;3.48;50.50
15604;BME280;7902;49.042;9.092;2022-12-18T14:12:45;100247.50;;;3.44;50.42
15604;BME280;7902;49.042;9.092;2022-12-18T14:20:21;100256.91;;;3.50;51.03
15604;BME280;7902;49.042;9.092;2022-12-18T14:22:48;100261.19;;;3.51;50.63
15604;BME280;7902;49.042;9.092;2022-12-18T14:27:43;100262.72;;;3.58;50.90
15604;BME280;7902;49.042;9.092;2022-12-18T14:33:10;100258.47;;;3.57;50.81
15604;BME280;7902;49.042;9.092;2022-12-18T14:35:42;100247.34;;;3.52;50.74
15604;BME280;7902;49.042;9.092;2022-12-18T14:38:22;100245.22;;;3.66;50.81
15604;BME280;7902;49.042;9.092;2022-12-18T14:43:28;100253.81;;;3.68;50.80
15604;BME280;7902;49.042;9.092;2022-12-18T14:45:55;100254.25;;;3.85;50.53
15604;BME280;7902;49.042;9.092;2022-12-18T14:48:36;100258.91;;;3.73;50.66
15604;BME280;7902;49.042;9.092;2022-12-18T14:51:20;100265.91;;;3.69;50.39